createdAt,value
2023-02-08T00:01:20.235Z,40.20
2023-02-08T00:03:48.245Z,35.00
2023-02-08T00:06:17.426Z,35.90
2023-02-08T00:08:45.836Z,32.50
2023-02-08T00:11:13.808Z,35.70
2023-02-08T00:13:43.003Z,42.60
2023-02-08T00:16:13.436Z,36.70
2023-02-08T00:18:42.405Z,41.00
2023-02-08T00:21:16.580Z,39.20
2023-02-08T00:23:44.795Z,51.10
2023-02-08T00:26:13.455Z,43.00
2023-02-08T00:28:42.304Z,41.70
2023-02-08T00:31:10.211Z,41.60
2023-02-08T00:33:38.406Z,42.10
2023-02-08T00:36:08.744Z,43.00
2023-02-08T00:38:37.169Z,46.40
2023-02-08T00:41:05.232Z,49.90
2023-02-08T00:43:33.200Z,51.30
2023-02-08T00:46:01.587Z,52.30
2023-02-08T00:48:30.178Z,62.10
2023-02-08T00:51:06.990Z,51.50
2023-02-08T00:53:37.275Z,51.50
2023-02-08T00:56:08.035Z,49.40
2023-02-08T00:58:36.385Z,55.70
2023-02-08T01:01:05.951Z,50.20
2023-02-08T01:03:39.604Z,56.70
2023-02-08T01:06:10.169Z,57.60
2023-02-08T01:08:38.509Z,59.30
2023-02-08T01:11:12.032Z,50.30
2023-02-08T01:13:40.725Z,56.70
2023-02-08T01:16:22.240Z,61.00
2023-02-08T01:18:52.624Z,66.00
2023-02-08T01:21:23.874Z,58.70
2023-02-08T01:23:52.562Z,56.60
2023-02-08T01:26:21.718Z,129.10
2023-02-08T01:28:51.302Z,76.40
2023-02-08T01:31:22.360Z,67.00
2023-02-08T01:33:50.707Z,69.80
2023-02-08T01:36:18.827Z,120.00
2023-02-08T01:38:47.581Z,67.40
2023-02-08T01:41:37.540Z,78.10
2023-02-08T01:44:11.908Z,121.50
2023-02-08T01:46:42.382Z,87.20
2023-02-08T01:49:22.700Z,88.60
2023-02-08T01:51:55.976Z,84.10
2023-02-08T01:54:30.547Z,62.50
2023-02-08T01:56:59.094Z,55.90
2023-02-08T01:59:33.879Z,57.20
2023-02-08T02:02:04.818Z,61.10
2023-02-08T02:04:32.857Z,56.10
2023-02-08T02:07:03.928Z,59.80
2023-02-08T02:09:40.191Z,64.40
2023-02-08T02:12:09.650Z,126.50
2023-02-08T02:14:38.903Z,79.80
2023-02-08T02:17:07.405Z,112.20
2023-02-08T02:20:03.564Z,96.30
2023-02-08T02:22:31.372Z,92.20
2023-02-08T02:25:30.500Z,70.60
2023-02-08T02:28:53.055Z,81.90
2023-02-08T02:31:57.406Z,59.90
2023-02-08T02:35:01.787Z,60.50
2023-02-08T02:37:44.799Z,72.20
2023-02-08T02:40:32.084Z,60.50
2023-02-08T02:43:30.006Z,56.90
2023-02-08T02:46:19.827Z,53.40
2023-02-08T02:48:50.573Z,53.60
2023-02-08T02:51:27.415Z,55.20
2023-02-08T02:54:17.277Z,55.80
2023-02-08T02:56:49.161Z,71.20
2023-02-08T02:59:18.282Z,103.10
2023-02-08T03:01:47.168Z,75.60
2023-02-08T03:04:18.168Z,75.10
2023-02-08T03:06:49.010Z,63.60
2023-02-08T03:09:37.520Z,63.50
2023-02-08T03:12:33.640Z,116.90
2023-02-08T03:15:19.684Z,118.80
2023-02-08T03:18:19.449Z,83.60
2023-02-08T03:21:17.850Z,160.30
2023-02-08T03:23:51.773Z,69.90
2023-02-08T03:26:32.063Z,62.20
2023-02-08T03:29:30.895Z,64.90
2023-02-08T03:32:22.171Z,65.60
2023-02-08T03:35:18.133Z,71.60
2023-02-08T03:37:55.356Z,101.00
2023-02-08T03:40:27.090Z,76.70
2023-02-08T03:43:00.245Z,106.20
2023-02-08T03:45:45.682Z,77.90
2023-02-08T03:50:47.283Z,65.10
2023-02-08T03:53:22.516Z,65.20
2023-02-08T03:55:58.196Z,70.70
2023-02-08T03:58:34.690Z,64.00
2023-02-08T04:01:20.161Z,61.70
2023-02-08T04:03:53.178Z,62.30
2023-02-08T04:06:22.521Z,66.40
2023-02-08T04:08:50.654Z,65.70
2023-02-08T04:11:18.643Z,62.00
2023-02-08T04:13:46.530Z,63.90
2023-02-08T04:16:14.636Z,80.50
2023-02-08T04:18:43.010Z,66.00
2023-02-08T04:21:10.970Z,67.20
2023-02-08T04:23:38.989Z,72.20
2023-02-08T04:26:08.885Z,64.70
2023-02-08T04:28:36.850Z,65.80
2023-02-08T04:31:05.055Z,93.00
2023-02-08T04:33:32.970Z,87.50
2023-02-08T04:36:00.835Z,68.30
2023-02-08T04:38:28.749Z,78.50
2023-02-08T04:40:56.716Z,78.40
2023-02-08T04:43:24.933Z,99.30
2023-02-08T04:45:52.936Z,88.60
2023-02-08T04:48:21.272Z,97.70
2023-02-08T04:50:49.124Z,136.40
2023-02-08T04:53:17.198Z,162.70
2023-02-08T04:55:45.232Z,104.80
2023-02-08T04:58:13.165Z,143.80
2023-02-08T05:00:41.508Z,192.80
2023-02-08T05:03:10.359Z,115.80
2023-02-08T05:05:38.406Z,69.50
2023-02-08T05:08:06.618Z,97.40
2023-02-08T05:10:34.761Z,89.20
2023-02-08T05:13:02.924Z,75.90
2023-02-08T05:15:31.001Z,74.70
2023-02-08T05:17:58.833Z,104.30
2023-02-08T05:20:26.850Z,77.20
2023-02-08T05:22:54.844Z,85.30
2023-02-08T05:25:23.114Z,74.00
2023-02-08T05:27:51.395Z,72.80
2023-02-08T05:30:19.660Z,79.90
2023-02-08T05:32:47.666Z,65.40
2023-02-08T05:35:15.730Z,60.80
2023-02-08T05:37:43.740Z,65.00
2023-02-08T05:40:13.307Z,79.10
2023-02-08T05:42:42.471Z,68.20
2023-02-08T05:45:10.335Z,59.70
2023-02-08T05:47:38.226Z,85.90
2023-02-08T05:50:06.834Z,99.80
2023-02-08T05:52:34.755Z,92.90
2023-02-08T05:55:02.751Z,79.10
2023-02-08T05:57:33.606Z,126.50
2023-02-08T06:00:05.510Z,76.40
2023-02-08T06:02:34.337Z,64.30
2023-02-08T06:05:02.195Z,86.00
2023-02-08T06:07:30.250Z,87.70
2023-02-08T06:09:58.101Z,70.20
2023-02-08T06:12:26.122Z,75.10
2023-02-08T06:14:53.886Z,69.90
2023-02-08T06:17:21.746Z,65.50
2023-02-08T06:19:49.683Z,60.30
2023-02-08T06:22:17.687Z,566.90
2023-02-08T06:24:45.622Z,397.90
2023-02-08T06:27:13.631Z,106.30
2023-02-08T06:29:41.533Z,81.00
2023-02-08T06:32:09.653Z,165.10
2023-02-08T06:34:37.573Z,159.10
2023-02-08T06:37:05.734Z,79.10
2023-02-08T06:39:34.294Z,80.70
2023-02-08T06:42:02.256Z,50.60
2023-02-08T06:44:30.287Z,66.30
2023-02-08T06:46:58.157Z,40.00
2023-02-08T06:49:25.966Z,39.70
2023-02-08T06:51:54.027Z,197.00
2023-02-08T06:54:21.906Z,117.30
2023-02-08T06:56:49.901Z,89.40
2023-02-08T06:59:17.808Z,124.20
2023-02-08T07:01:45.757Z,94.30
2023-02-08T07:04:13.685Z,54.70
2023-02-08T07:06:41.541Z,41.40
2023-02-08T07:09:09.394Z,136.60
2023-02-08T07:11:37.351Z,79.70
2023-02-08T07:14:05.457Z,58.80
2023-02-08T07:16:33.386Z,137.40
2023-02-08T07:19:01.389Z,50.70
2023-02-08T07:21:29.350Z,68.70
2023-02-08T07:23:57.283Z,44.00
2023-02-08T07:26:25.091Z,77.00
2023-02-08T07:28:52.865Z,28.20
2023-02-08T07:31:20.832Z,48.30
2023-02-08T07:33:49.502Z,80.10
2023-02-08T07:36:17.322Z,44.30
2023-02-08T07:38:45.235Z,69.50
2023-02-08T07:41:14.860Z,48.90
2023-02-08T07:43:43.256Z,61.00
2023-02-08T07:46:20.892Z,51.20
2023-02-08T07:48:52.868Z,32.10
2023-02-08T07:51:20.814Z,34.80
2023-02-08T07:53:48.873Z,42.00
2023-02-08T07:56:17.513Z,131.60
2023-02-08T07:58:46.661Z,75.20
2023-02-08T08:01:22.260Z,67.90
2023-02-08T08:03:52.423Z,41.00
2023-02-08T08:06:22.013Z,44.00
2023-02-08T08:08:50.770Z,27.50
2023-02-08T08:11:20.843Z,24.50
2023-02-08T08:13:48.961Z,24.30
2023-02-08T08:16:17.424Z,30.80
2023-02-08T08:18:45.955Z,30.50
2023-02-08T08:21:15.497Z,27.90
2023-02-08T08:23:43.590Z,28.90
2023-02-08T08:26:18.751Z,28.80
2023-02-08T08:28:47.455Z,25.60
2023-02-08T08:31:21.539Z,25.00
2023-02-08T08:33:50.611Z,27.20
2023-02-08T08:36:18.643Z,31.50
2023-02-08T08:38:46.712Z,52.60
2023-02-08T08:41:22.454Z,78.10
2023-02-08T08:46:18.564Z,38.90
2023-02-08T08:48:46.899Z,65.40
2023-02-08T08:51:15.234Z,55.70
2023-02-08T08:53:43.332Z,47.40
2023-02-08T08:56:11.843Z,38.50
2023-02-08T08:58:40.094Z,34.00
2023-02-08T09:01:07.981Z,401.40
2023-02-08T09:03:36.203Z,309.10
2023-02-08T09:06:04.086Z,379.30
2023-02-08T09:08:32.077Z,131.30
2023-02-08T09:11:11.742Z,60.00
2023-02-08T09:13:40.172Z,77.50
2023-02-08T09:16:15.002Z,64.30
2023-02-08T09:18:44.215Z,40.00
2023-02-08T09:21:18.772Z,61.60
2023-02-08T09:23:50.011Z,95.90
2023-02-08T09:26:19.885Z,55.10
2023-02-08T09:28:48.276Z,47.00
2023-02-08T09:31:21.164Z,45.60
2023-02-08T09:33:54.342Z,33.30
2023-02-08T09:36:24.424Z,44.20
2023-02-08T09:39:00.255Z,33.50
2023-02-08T09:41:37.021Z,38.40
2023-02-08T09:44:26.409Z,36.90
2023-02-08T09:47:08.733Z,62.30
2023-02-08T09:49:43.586Z,30.90
2023-02-08T09:52:16.517Z,38.00
2023-02-08T09:54:54.885Z,32.50
2023-02-08T09:57:28.853Z,30.60
2023-02-08T10:00:01.839Z,25.70
2023-02-08T10:02:32.797Z,38.20
2023-02-08T10:05:29.918Z,24.40
2023-02-08T10:08:00.581Z,22.80
2023-02-08T10:10:55.519Z,28.70
2023-02-08T10:13:42.545Z,20.90
2023-02-08T10:16:32.637Z,23.60
2023-02-08T10:19:18.695Z,26.30
2023-02-08T10:22:07.578Z,21.40
2023-02-08T10:24:38.480Z,23.40
2023-02-08T10:27:08.974Z,25.00
2023-02-08T10:30:04.829Z,25.90
2023-02-08T10:32:51.467Z,21.20
2023-02-08T10:35:28.987Z,36.40
2023-02-08T10:37:57.054Z,44.80
2023-02-08T10:40:35.955Z,27.20
2023-02-08T10:43:26.942Z,36.00
2023-02-08T10:46:20.463Z,27.10
2023-02-08T10:49:16.654Z,26.20
2023-02-08T10:51:46.376Z,40.70
2023-02-08T10:54:16.256Z,47.80
2023-02-08T10:56:57.694Z,51.50
2023-02-08T10:59:37.536Z,37.20
2023-02-08T11:02:29.063Z,40.50
2023-02-08T11:05:05.573Z,25.00
2023-02-08T11:07:36.471Z,23.20
2023-02-08T11:10:25.700Z,26.00
2023-02-08T11:12:56.764Z,21.30
2023-02-08T11:15:37.429Z,48.90
2023-02-08T11:18:07.184Z,40.50
2023-02-08T11:20:40.462Z,44.60
2023-02-08T11:23:30.156Z,110.50
2023-02-08T11:26:30.959Z,56.00
2023-02-08T11:29:17.976Z,117.10
2023-02-08T11:31:55.440Z,55.80
2023-02-08T11:34:26.327Z,74.30
2023-02-08T11:36:55.985Z,77.30
2023-02-08T11:39:40.514Z,92.40
2023-02-08T11:42:26.317Z,98.90
2023-02-08T11:44:57.170Z,78.10
2023-02-08T11:47:30.720Z,71.70
2023-02-08T11:50:06.169Z,56.50
2023-02-08T11:52:38.290Z,50.80
2023-02-08T11:55:18.674Z,47.10
2023-02-08T11:58:01.113Z,36.50
2023-02-08T12:00:35.341Z,36.20
2023-02-08T12:03:23.853Z,33.60
2023-02-08T12:06:13.590Z,33.40
2023-02-08T12:08:54.559Z,38.80
2023-02-08T12:11:43.948Z,37.40
2023-02-08T12:14:21.319Z,31.80
2023-02-08T12:17:10.255Z,36.50
2023-02-08T12:20:10.301Z,38.60
2023-02-08T12:22:44.833Z,36.50
2023-02-08T12:25:28.178Z,33.50
2023-02-08T12:28:03.684Z,36.50
2023-02-08T12:30:43.993Z,22.70
2023-02-08T12:33:58.701Z,31.90
2023-02-08T12:36:41.545Z,32.70
2023-02-08T12:39:53.843Z,33.00
2023-02-08T12:42:26.198Z,34.40
2023-02-08T12:45:33.041Z,37.90
2023-02-08T12:48:19.652Z,31.30
2023-02-08T12:50:59.266Z,122.90
2023-02-08T12:53:49.082Z,137.70
2023-02-08T12:56:23.337Z,348.00
2023-02-08T12:59:08.254Z,187.40
2023-02-08T13:01:47.463Z,212.70
2023-02-08T13:04:22.894Z,303.70
2023-02-08T13:06:59.360Z,187.70
2023-02-08T13:09:35.517Z,106.00
2023-02-08T13:12:19.548Z,79.10
2023-02-08T13:14:52.685Z,61.10
2023-02-08T13:17:51.711Z,59.30
2023-02-08T13:20:30.972Z,47.00
2023-02-08T13:23:11.337Z,50.70
2023-02-08T13:25:43.157Z,52.10
2023-02-08T13:28:19.780Z,53.10
2023-02-08T13:31:07.216Z,56.60
2023-02-08T13:33:59.292Z,55.10
2023-02-08T13:36:40.506Z,57.10
2023-02-08T13:39:35.177Z,57.90
2023-02-08T13:42:06.264Z,58.50
2023-02-08T13:44:38.547Z,51.50
2023-02-08T13:47:08.052Z,50.70
2023-02-08T13:49:51.223Z,60.90
2023-02-08T13:52:46.957Z,50.20
2023-02-08T13:55:32.152Z,44.80
2023-02-08T13:58:04.325Z,43.40
2023-02-08T14:00:35.565Z,46.50
2023-02-08T14:03:15.519Z,46.50
2023-02-08T14:05:53.375Z,48.40
2023-02-08T14:08:23.629Z,52.90
2023-02-08T14:11:30.463Z,45.40
2023-02-08T14:13:58.338Z,50.80
2023-02-08T14:16:40.749Z,52.40
2023-02-08T14:19:20.705Z,54.20
2023-02-08T14:22:07.014Z,49.40
2023-02-08T14:24:59.809Z,50.40
2023-02-08T14:27:39.816Z,53.10
2023-02-08T14:30:17.138Z,50.90
2023-02-08T14:33:05.190Z,50.30
2023-02-08T14:35:37.648Z,251.20
2023-02-08T14:38:23.971Z,133.00
2023-02-08T14:41:02.080Z,81.10
2023-02-08T14:43:42.589Z,61.10
2023-02-08T14:46:43.322Z,48.20
2023-02-08T14:49:17.256Z,52.80
2023-02-08T14:52:02.957Z,48.20
2023-02-08T14:54:37.613Z,52.90
2023-02-08T14:57:28.098Z,53.00
2023-02-08T15:00:00.619Z,67.20
2023-02-08T15:02:32.674Z,66.80
2023-02-08T15:05:09.414Z,83.60
2023-02-08T15:07:47.165Z,71.40
2023-02-08T15:10:17.201Z,68.00
2023-02-08T15:12:51.706Z,51.60
2023-02-08T15:15:28.883Z,52.50
2023-02-08T15:17:57.975Z,82.60
2023-02-08T15:20:32.117Z,68.30
2023-02-08T15:23:19.982Z,60.40
2023-02-08T15:26:06.653Z,49.90
2023-02-08T15:28:36.728Z,62.30
2023-02-08T15:31:09.631Z,62.80
2023-02-08T15:33:39.573Z,89.70
2023-02-08T15:36:22.701Z,98.10
2023-02-08T15:38:51.084Z,121.70
2023-02-08T15:41:31.692Z,93.70
2023-02-08T15:44:30.145Z,63.50
2023-02-08T15:47:04.489Z,56.80
2023-02-08T15:49:37.548Z,51.90
2023-02-08T15:52:06.381Z,58.50
2023-02-08T15:54:34.936Z,59.40
2023-02-08T15:57:08.010Z,63.20
2023-02-08T15:59:39.229Z,68.00
2023-02-08T16:02:26.171Z,98.20
2023-02-08T16:04:55.633Z,147.30
2023-02-08T16:07:29.440Z,126.70
2023-02-08T16:09:58.141Z,151.70
2023-02-08T16:12:28.923Z,221.10
2023-02-08T16:14:57.055Z,190.30
2023-02-08T16:17:37.758Z,154.10
2023-02-08T16:20:22.818Z,113.40
2023-02-08T16:22:59.924Z,84.90
2023-02-08T16:25:37.885Z,74.90
2023-02-08T16:28:06.154Z,76.50
2023-02-08T16:30:34.580Z,106.80
2023-02-08T16:33:08.056Z,103.90
2023-02-08T16:35:38.814Z,154.50
2023-02-08T16:38:10.244Z,299.10
2023-02-08T16:40:38.151Z,381.90
2023-02-08T16:43:20.222Z,301.90
2023-02-08T16:46:16.552Z,188.20
2023-02-08T16:48:48.899Z,146.20
2023-02-08T16:51:24.704Z,84.40
2023-02-08T16:53:56.738Z,73.00
2023-02-08T16:56:25.068Z,78.90
2023-02-08T16:58:53.342Z,70.50
2023-02-08T17:01:26.414Z,77.70
2023-02-08T17:03:54.845Z,79.10
2023-02-08T17:06:37.557Z,83.60
2023-02-08T17:09:09.039Z,82.30
2023-02-08T17:11:37.868Z,80.10
2023-02-08T17:14:10.151Z,83.30
2023-02-08T17:16:40.074Z,82.50
2023-02-08T17:19:16.572Z,82.00
2023-02-08T17:21:44.989Z,80.00
2023-02-08T17:24:12.750Z,80.10
2023-02-08T17:26:44.023Z,78.90
2023-02-08T17:29:13.036Z,80.20
2023-02-08T17:31:41.391Z,79.10
2023-02-08T17:34:09.243Z,75.30
2023-02-08T17:36:37.310Z,104.20
2023-02-08T17:39:06.093Z,79.10
2023-02-08T17:41:35.543Z,79.80
2023-02-08T17:44:04.255Z,85.00
2023-02-08T17:46:32.978Z,81.90
2023-02-08T17:49:01.933Z,77.60
2023-02-08T17:51:31.070Z,108.50
2023-02-08T17:53:59.340Z,112.40
2023-02-08T17:56:28.750Z,132.70
2023-02-08T17:58:59.287Z,104.90
2023-02-08T18:01:27.327Z,149.90
2023-02-08T18:03:55.785Z,114.00
2023-02-08T18:06:25.102Z,111.40
2023-02-08T18:08:54.875Z,143.60
2023-02-08T18:11:24.240Z,178.90
2023-02-08T18:13:53.834Z,213.70
2023-02-08T18:16:27.349Z,230.60
2023-02-08T18:19:02.047Z,200.60
2023-02-08T18:21:33.124Z,180.40
2023-02-08T18:24:05.595Z,174.70
2023-02-08T18:26:34.637Z,134.40
2023-02-08T18:29:03.514Z,96.10
2023-02-08T18:31:32.201Z,115.90
2023-02-08T18:34:00.245Z,137.80
2023-02-08T18:36:28.136Z,128.80
2023-02-08T18:38:56.997Z,138.10
2023-02-08T18:41:28.057Z,109.80
2023-02-08T18:43:58.308Z,102.30
2023-02-08T18:46:28.490Z,89.60
2023-02-08T18:48:56.979Z,77.10
2023-02-08T18:51:26.478Z,85.70
2023-02-08T18:53:55.102Z,120.30
2023-02-08T18:56:25.295Z,131.30
2023-02-08T18:58:55.636Z,425.90
2023-02-08T19:01:24.993Z,400.40
2023-02-08T19:03:54.245Z,370.60
2023-02-08T19:06:25.523Z,331.80
2023-02-08T19:08:56.033Z,323.00
2023-02-08T19:11:26.924Z,423.00
2023-02-08T19:14:01.865Z,594.30
2023-02-08T19:16:31.493Z,518.20
2023-02-08T19:19:01.237Z,661.70
2023-02-08T19:21:30.774Z,599.20
2023-02-08T19:24:00.709Z,573.20
2023-02-08T19:26:39.889Z,439.40
2023-02-08T19:29:14.234Z,494.40
2023-02-08T19:31:42.735Z,484.30
2023-02-08T19:34:12.357Z,478.60
2023-02-08T19:36:49.690Z,405.50
2023-02-08T19:39:22.637Z,220.20
2023-02-08T19:41:52.924Z,209.40
2023-02-08T19:44:22.749Z,147.20
2023-02-08T19:46:55.293Z,123.20
2023-02-08T19:49:26.031Z,160.20
2023-02-08T19:51:54.903Z,152.20
2023-02-08T19:54:23.212Z,148.70
2023-02-08T19:56:54.736Z,148.50
2023-02-08T19:59:29.320Z,188.50
2023-02-08T20:01:58.266Z,171.40
2023-02-08T20:04:26.498Z,114.70
2023-02-08T20:06:54.710Z,121.50
2023-02-08T20:09:22.607Z,116.20
2023-02-08T20:11:59.726Z,201.00
2023-02-08T20:14:31.126Z,322.10
2023-02-08T20:17:00.202Z,362.70
2023-02-08T20:19:29.378Z,265.80
2023-02-08T20:21:57.374Z,387.40
2023-02-08T20:24:25.372Z,411.60
2023-02-08T20:26:53.428Z,352.10
2023-02-08T20:29:21.439Z,340.40
2023-02-08T20:31:55.818Z,351.90
2023-02-08T20:34:24.431Z,411.80
2023-02-08T20:37:06.172Z,360.40
2023-02-08T20:39:36.897Z,317.10
2023-02-08T20:42:05.437Z,273.80
2023-02-08T20:44:33.571Z,218.90
2023-02-08T20:47:01.827Z,209.30
2023-02-08T20:49:32.217Z,198.40
2023-02-08T20:52:00.735Z,213.10
2023-02-08T20:54:28.898Z,182.10
2023-02-08T20:56:57.319Z,132.20
2023-02-08T20:59:25.647Z,130.40
2023-02-08T21:01:53.857Z,191.70
2023-02-08T21:04:26.364Z,151.40
2023-02-08T21:06:54.458Z,152.50
2023-02-08T21:09:22.503Z,130.90
2023-02-08T21:11:51.766Z,128.60
2023-02-08T21:14:23.252Z,157.70
2023-02-08T21:16:55.924Z,143.00
2023-02-08T21:19:25.876Z,162.90
2023-02-08T21:21:58.561Z,157.40
2023-02-08T21:24:27.532Z,167.50
2023-02-08T21:26:56.800Z,194.50
2023-02-08T21:29:25.496Z,227.20
2023-02-08T21:31:54.649Z,239.60
2023-02-08T21:34:23.163Z,220.70
2023-02-08T21:36:51.184Z,231.80
2023-02-08T21:39:19.338Z,218.40
2023-02-08T21:41:48.417Z,313.30
2023-02-08T21:44:16.572Z,424.40
2023-02-08T21:46:44.506Z,534.90
2023-02-08T21:49:31.668Z,516.20
2023-02-08T21:52:18.389Z,431.80
2023-02-08T21:54:53.139Z,364.10
2023-02-08T21:57:24.447Z,257.80
2023-02-08T21:59:56.609Z,241.50
2023-02-08T22:02:28.691Z,261.60
2023-02-08T22:04:59.196Z,252.30
2023-02-08T22:07:28.980Z,251.50
2023-02-08T22:09:58.025Z,234.10
2023-02-08T22:12:25.965Z,214.90
2023-02-08T22:14:53.956Z,208.70
2023-02-08T22:17:21.825Z,198.20
2023-02-08T22:19:49.750Z,158.90
2023-02-08T22:22:17.651Z,167.90
2023-02-08T22:24:45.461Z,193.70
2023-02-08T22:27:13.402Z,281.60
2023-02-08T22:29:41.420Z,321.50
2023-02-08T22:32:10.141Z,327.50
2023-02-08T22:34:38.538Z,211.80
2023-02-08T22:37:06.368Z,217.40
2023-02-08T22:39:35.871Z,205.70
2023-02-08T22:42:08.603Z,211.90
2023-02-08T22:44:36.674Z,261.70
2023-02-08T22:47:08.709Z,205.80
2023-02-08T22:49:37.940Z,212.20
2023-02-08T22:52:08.806Z,245.20
2023-02-08T22:54:36.736Z,207.90
2023-02-08T22:57:06.203Z,192.00
2023-02-08T22:59:34.343Z,163.60
2023-02-08T23:02:02.315Z,143.80
2023-02-08T23:04:31.180Z,128.90
2023-02-08T23:07:00.035Z,122.40
2023-02-08T23:09:27.912Z,109.80
2023-02-08T23:11:56.247Z,105.90
2023-02-08T23:14:24.236Z,111.90
2023-02-08T23:16:52.196Z,109.10
2023-02-08T23:19:20.034Z,124.90
2023-02-08T23:21:48.025Z,114.60
2023-02-08T23:24:15.887Z,115.70
2023-02-08T23:26:43.795Z,111.10
2023-02-08T23:29:11.815Z,135.20
2023-02-08T23:31:41.066Z,170.10
2023-02-08T23:34:11.518Z,190.90
2023-02-08T23:36:39.556Z,188.70
2023-02-08T23:39:08.153Z,176.20
2023-02-08T23:41:36.028Z,168.90
2023-02-08T23:44:04.166Z,168.70
2023-02-08T23:46:32.728Z,165.60
2023-02-08T23:49:00.901Z,166.70
2023-02-08T23:51:28.818Z,158.10
2023-02-08T23:53:56.853Z,168.90
2023-02-08T23:56:32.000Z,163.60
2023-02-08T23:59:00.605Z,155.10
